sensor_id;sensor_type;location;lat;lon;timestamp;P1;durP1;ratioP1;P2;durP2;ratioP2
21480;SDS011;10902;48.158;8.634;2023-01-01T00:02:13;41.10;;;31.50;;
21480;SDS011;10902;48.158;8.634;2023-01-01T00:04:38;46.72;;;34.20;;
21480;SDS011;10902;48.158;8.634;2023-01-01T00:07:04;37.92;;;28.60;;
21480;SDS011;10902;48.158;8.634;2023-01-01T00:09:30;41.55;;;31.63;;
21480;SDS011;10902;48.158;8.634;2023-01-01T00:12:13;40.13;;;30.60;;
21480;SDS011;10902;48.158;8.634;2023-01-01T00:14:39;39.90;;;30.25;;
21480;SDS011;10902;48.158;8.634;2023-01-01T00:17:07;45.83;;;31.80;;
21480;SDS011;10902;48.158;8.634;2023-01-01T00:19:32;38.78;;;28.20;;
21480;SDS011;10902;48.158;8.634;2023-01-01T00:21:58;39.60;;;29.27;;
21480;SDS011;10902;48.158;8.634;2023-01-01T00:24:23;49.97;;;37.95;;
21480;SDS011;10902;48.158;8.634;2023-01-01T00:26:49;115.38;;;84.75;;
21480;SDS011;10902;48.158;8.634;2023-01-01T00:29:14;130.90;;;95.63;;
21480;SDS011;10902;48.158;8.634;2023-01-01T00:31:40;123.75;;;93.82;;
21480;SDS011;10902;48.158;8.634;2023-01-01T00:34:05;132.52;;;99.07;;
21480;SDS011;10902;48.158;8.634;2023-01-01T00:36:33;123.60;;;91.32;;
21480;SDS011;10902;48.158;8.634;2023-01-01T00:39:00;122.55;;;90.80;;
21480;SDS011;10902;48.158;8.634;2023-01-01T00:41:26;135.80;;;102.20;;
21480;SDS011;10902;48.158;8.634;2023-01-01T00:43:52;139.32;;;99.55;;
21480;SDS011;10902;48.158;8.634;2023-01-01T00:46:18;128.10;;;94.03;;
21480;SDS011;10902;48.158;8.634;2023-01-01T00:48:43;137.95;;;105.10;;
21480;SDS011;10902;48.158;8.634;2023-01-01T00:51:09;115.28;;;86.65;;
21480;SDS011;10902;48.158;8.634;2023-01-01T00:53:35;136.68;;;98.68;;
21480;SDS011;10902;48.158;8.634;2023-01-01T00:56:01;121.25;;;92.07;;
21480;SDS011;10902;48.158;8.634;2023-01-01T00:58:28;115.38;;;85.03;;
21480;SDS011;10902;48.158;8.634;2023-01-01T01:00:53;120.65;;;86.80;;
21480;SDS011;10902;48.158;8.634;2023-01-01T01:03:20;111.18;;;80.15;;
21480;SDS011;10902;48.158;8.634;2023-01-01T01:06:10;107.78;;;78.93;;
21480;SDS011;10902;48.158;8.634;2023-01-01T01:08:39;120.63;;;85.43;;
21480;SDS011;10902;48.158;8.634;2023-01-01T01:11:08;111.63;;;80.88;;
21480;SDS011;10902;48.158;8.634;2023-01-01T01:13:35;85.03;;;63.53;;
21480;SDS011;10902;48.158;8.634;2023-01-01T01:16:06;87.45;;;64.32;;
21480;SDS011;10902;48.158;8.634;2023-01-01T01:18:36;82.78;;;59.50;;
21480;SDS011;10902;48.158;8.634;2023-01-01T01:21:02;78.10;;;53.83;;
21480;SDS011;10902;48.158;8.634;2023-01-01T01:23:28;73.90;;;52.15;;
21480;SDS011;10902;48.158;8.634;2023-01-01T01:25:53;69.85;;;49.85;;
21480;SDS011;10902;48.158;8.634;2023-01-01T01:28:19;68.82;;;49.72;;
21480;SDS011;10902;48.158;8.634;2023-01-01T01:30:45;64.10;;;44.05;;
21480;SDS011;10902;48.158;8.634;2023-01-01T01:33:10;61.83;;;42.42;;
21480;SDS011;10902;48.158;8.634;2023-01-01T01:35:36;52.75;;;37.10;;
21480;SDS011;10902;48.158;8.634;2023-01-01T01:38:01;43.53;;;31.27;;
21480;SDS011;10902;48.158;8.634;2023-01-01T01:40:27;38.25;;;28.33;;
21480;SDS011;10902;48.158;8.634;2023-01-01T01:42:52;38.95;;;26.38;;
21480;SDS011;10902;48.158;8.634;2023-01-01T01:45:18;34.35;;;24.08;;
21480;SDS011;10902;48.158;8.634;2023-01-01T01:52:56;28.17;;;19.30;;
21480;SDS011;10902;48.158;8.634;2023-01-01T01:55:33;28.02;;;20.40;;
21480;SDS011;10902;48.158;8.634;2023-01-01T01:58:01;23.48;;;16.67;;
21480;SDS011;10902;48.158;8.634;2023-01-01T02:00:28;24.27;;;16.27;;
21480;SDS011;10902;48.158;8.634;2023-01-01T02:05:28;19.83;;;13.50;;
21480;SDS011;10902;48.158;8.634;2023-01-01T02:07:55;18.48;;;13.35;;
21480;SDS011;10902;48.158;8.634;2023-01-01T02:10:22;20.23;;;14.05;;
21480;SDS011;10902;48.158;8.634;2023-01-01T02:12:48;18.75;;;12.88;;
21480;SDS011;10902;48.158;8.634;2023-01-01T02:15:13;20.17;;;13.77;;
21480;SDS011;10902;48.158;8.634;2023-01-01T02:17:49;20.08;;;14.38;;
21480;SDS011;10902;48.158;8.634;2023-01-01T02:20:41;20.25;;;13.80;;
21480;SDS011;10902;48.158;8.634;2023-01-01T02:25:57;16.60;;;11.68;;
21480;SDS011;10902;48.158;8.634;2023-01-01T02:29:02;15.98;;;11.55;;
21480;SDS011;10902;48.158;8.634;2023-01-01T02:31:31;19.02;;;12.77;;
21480;SDS011;10902;48.158;8.634;2023-01-01T02:34:04;18.38;;;12.52;;
21480;SDS011;10902;48.158;8.634;2023-01-01T02:36:34;18.45;;;11.60;;
21480;SDS011;10902;48.158;8.634;2023-01-01T02:39:05;15.55;;;10.50;;
21480;SDS011;10902;48.158;8.634;2023-01-01T02:41:34;17.35;;;11.05;;
21480;SDS011;10902;48.158;8.634;2023-01-01T02:44:04;16.58;;;10.75;;
21480;SDS011;10902;48.158;8.634;2023-01-01T02:46:34;16.23;;;11.18;;
21480;SDS011;10902;48.158;8.634;2023-01-01T02:49:01;14.98;;;10.45;;
21480;SDS011;10902;48.158;8.634;2023-01-01T02:57:31;14.98;;;10.20;;
21480;SDS011;10902;48.158;8.634;2023-01-01T03:00:14;13.25;;;9.27;;
21480;SDS011;10902;48.158;8.634;2023-01-01T03:02:54;14.15;;;8.65;;
21480;SDS011;10902;48.158;8.634;2023-01-01T03:05:35;14.02;;;9.48;;
21480;SDS011;10902;48.158;8.634;2023-01-01T03:08:47;17.13;;;10.15;;
21480;SDS011;10902;48.158;8.634;2023-01-01T03:11:18;16.75;;;11.07;;
21480;SDS011;10902;48.158;8.634;2023-01-01T03:13:51;22.92;;;13.30;;
21480;SDS011;10902;48.158;8.634;2023-01-01T03:19:15;18.70;;;12.75;;
21480;SDS011;10902;48.158;8.634;2023-01-01T03:21:42;22.58;;;14.00;;
21480;SDS011;10902;48.158;8.634;2023-01-01T03:26:56;23.35;;;14.45;;
21480;SDS011;10902;48.158;8.634;2023-01-01T03:29:26;23.60;;;14.65;;
21480;SDS011;10902;48.158;8.634;2023-01-01T03:31:55;24.60;;;15.48;;
21480;SDS011;10902;48.158;8.634;2023-01-01T03:34:26;20.85;;;13.05;;
21480;SDS011;10902;48.158;8.634;2023-01-01T03:36:56;21.98;;;14.43;;
21480;SDS011;10902;48.158;8.634;2023-01-01T03:39:32;23.05;;;14.77;;
21480;SDS011;10902;48.158;8.634;2023-01-01T03:42:05;24.05;;;15.07;;
21480;SDS011;10902;48.158;8.634;2023-01-01T03:44:33;21.38;;;13.35;;
21480;SDS011;10902;48.158;8.634;2023-01-01T03:47:04;22.52;;;15.05;;
21480;SDS011;10902;48.158;8.634;2023-01-01T03:49:30;24.88;;;14.82;;
21480;SDS011;10902;48.158;8.634;2023-01-01T03:57:20;22.70;;;14.38;;
21480;SDS011;10902;48.158;8.634;2023-01-01T04:00:06;19.63;;;12.95;;
21480;SDS011;10902;48.158;8.634;2023-01-01T04:05:24;21.30;;;13.77;;
21480;SDS011;10902;48.158;8.634;2023-01-01T04:07:50;24.83;;;14.70;;
21480;SDS011;10902;48.158;8.634;2023-01-01T04:10:17;23.58;;;14.70;;
21480;SDS011;10902;48.158;8.634;2023-01-01T04:12:44;24.65;;;16.10;;
21480;SDS011;10902;48.158;8.634;2023-01-01T04:15:19;24.42;;;16.17;;
21480;SDS011;10902;48.158;8.634;2023-01-01T04:17:46;21.75;;;14.70;;
21480;SDS011;10902;48.158;8.634;2023-01-01T04:20:12;22.08;;;14.48;;
21480;SDS011;10902;48.158;8.634;2023-01-01T04:22:38;21.20;;;12.95;;
21480;SDS011;10902;48.158;8.634;2023-01-01T04:25:04;22.08;;;14.60;;
21480;SDS011;10902;48.158;8.634;2023-01-01T04:27:30;25.83;;;15.57;;
21480;SDS011;10902;48.158;8.634;2023-01-01T04:29:56;21.05;;;14.70;;
21480;SDS011;10902;48.158;8.634;2023-01-01T04:32:21;24.17;;;14.18;;
21480;SDS011;10902;48.158;8.634;2023-01-01T04:34:47;25.05;;;14.25;;
21480;SDS011;10902;48.158;8.634;2023-01-01T04:37:13;20.73;;;14.27;;
21480;SDS011;10902;48.158;8.634;2023-01-01T04:39:39;20.75;;;14.07;;
21480;SDS011;10902;48.158;8.634;2023-01-01T04:42:05;19.50;;;13.63;;
21480;SDS011;10902;48.158;8.634;2023-01-01T04:44:30;27.13;;;15.02;;
21480;SDS011;10902;48.158;8.634;2023-01-01T04:46:56;23.80;;;14.32;;
21480;SDS011;10902;48.158;8.634;2023-01-01T04:49:22;21.88;;;13.65;;
21480;SDS011;10902;48.158;8.634;2023-01-01T04:51:47;22.55;;;14.15;;
21480;SDS011;10902;48.158;8.634;2023-01-01T04:54:13;22.17;;;15.05;;
21480;SDS011;10902;48.158;8.634;2023-01-01T04:56:39;22.25;;;14.38;;
21480;SDS011;10902;48.158;8.634;2023-01-01T04:59:04;22.75;;;14.93;;
21480;SDS011;10902;48.158;8.634;2023-01-01T05:01:30;23.25;;;14.23;;
21480;SDS011;10902;48.158;8.634;2023-01-01T05:03:57;22.83;;;13.75;;
21480;SDS011;10902;48.158;8.634;2023-01-01T05:06:23;23.88;;;16.05;;
21480;SDS011;10902;48.158;8.634;2023-01-01T05:08:50;22.10;;;13.93;;
21480;SDS011;10902;48.158;8.634;2023-01-01T05:11:21;20.55;;;14.27;;
21480;SDS011;10902;48.158;8.634;2023-01-01T05:13:49;24.45;;;15.18;;
21480;SDS011;10902;48.158;8.634;2023-01-01T05:16:18;22.92;;;14.38;;
21480;SDS011;10902;48.158;8.634;2023-01-01T05:18:45;19.98;;;13.43;;
21480;SDS011;10902;48.158;8.634;2023-01-01T05:21:13;22.80;;;14.57;;
21480;SDS011;10902;48.158;8.634;2023-01-01T05:23:40;21.50;;;13.98;;
21480;SDS011;10902;48.158;8.634;2023-01-01T05:26:09;22.15;;;13.82;;
21480;SDS011;10902;48.158;8.634;2023-01-01T05:28:39;21.67;;;13.50;;
21480;SDS011;10902;48.158;8.634;2023-01-01T05:31:06;20.67;;;13.45;;
21480;SDS011;10902;48.158;8.634;2023-01-01T05:33:34;18.20;;;11.63;;
21480;SDS011;10902;48.158;8.634;2023-01-01T05:36:00;19.63;;;11.80;;
21480;SDS011;10902;48.158;8.634;2023-01-01T05:38:26;17.42;;;11.48;;
21480;SDS011;10902;48.158;8.634;2023-01-01T05:40:52;16.98;;;10.93;;
21480;SDS011;10902;48.158;8.634;2023-01-01T05:43:18;18.23;;;11.73;;
21480;SDS011;10902;48.158;8.634;2023-01-01T05:45:43;18.42;;;12.35;;
21480;SDS011;10902;48.158;8.634;2023-01-01T05:48:10;17.83;;;12.13;;
21480;SDS011;10902;48.158;8.634;2023-01-01T05:50:35;22.75;;;12.45;;
21480;SDS011;10902;48.158;8.634;2023-01-01T05:53:01;22.08;;;12.70;;
21480;SDS011;10902;48.158;8.634;2023-01-01T05:55:27;18.35;;;12.52;;
21480;SDS011;10902;48.158;8.634;2023-01-01T05:57:54;20.10;;;13.02;;
21480;SDS011;10902;48.158;8.634;2023-01-01T06:00:20;22.67;;;13.30;;
21480;SDS011;10902;48.158;8.634;2023-01-01T06:02:46;21.30;;;12.77;;
21480;SDS011;10902;48.158;8.634;2023-01-01T06:05:13;19.98;;;11.90;;
21480;SDS011;10902;48.158;8.634;2023-01-01T06:07:39;20.67;;;13.00;;
21480;SDS011;10902;48.158;8.634;2023-01-01T06:10:05;17.23;;;11.30;;
21480;SDS011;10902;48.158;8.634;2023-01-01T06:12:30;18.38;;;11.52;;
21480;SDS011;10902;48.158;8.634;2023-01-01T06:14:56;18.20;;;12.63;;
21480;SDS011;10902;48.158;8.634;2023-01-01T06:17:22;18.42;;;12.45;;
21480;SDS011;10902;48.158;8.634;2023-01-01T06:19:47;19.50;;;12.32;;
21480;SDS011;10902;48.158;8.634;2023-01-01T06:22:13;18.40;;;12.30;;
21480;SDS011;10902;48.158;8.634;2023-01-01T06:24:38;20.30;;;12.73;;
21480;SDS011;10902;48.158;8.634;2023-01-01T06:27:04;18.17;;;11.85;;
21480;SDS011;10902;48.158;8.634;2023-01-01T06:29:31;20.52;;;11.93;;
21480;SDS011;10902;48.158;8.634;2023-01-01T06:31:56;18.58;;;12.48;;
21480;SDS011;10902;48.158;8.634;2023-01-01T06:34:22;19.33;;;12.93;;
21480;SDS011;10902;48.158;8.634;2023-01-01T06:36:48;19.30;;;12.38;;
21480;SDS011;10902;48.158;8.634;2023-01-01T06:39:13;17.48;;;12.32;;
21480;SDS011;10902;48.158;8.634;2023-01-01T06:41:39;19.60;;;12.40;;
21480;SDS011;10902;48.158;8.634;2023-01-01T06:44:04;18.08;;;12.00;;
21480;SDS011;10902;48.158;8.634;2023-01-01T06:46:30;17.73;;;11.70;;
21480;SDS011;10902;48.158;8.634;2023-01-01T06:48:58;17.80;;;11.85;;
21480;SDS011;10902;48.158;8.634;2023-01-01T06:51:30;18.75;;;12.45;;
21480;SDS011;10902;48.158;8.634;2023-01-01T06:54:05;20.45;;;13.13;;
21480;SDS011;10902;48.158;8.634;2023-01-01T06:56:31;20.35;;;13.02;;
21480;SDS011;10902;48.158;8.634;2023-01-01T06:58:57;19.95;;;12.40;;
21480;SDS011;10902;48.158;8.634;2023-01-01T07:01:24;18.98;;;12.73;;
21480;SDS011;10902;48.158;8.634;2023-01-01T07:03:53;18.35;;;11.93;;
21480;SDS011;10902;48.158;8.634;2023-01-01T07:06:20;20.13;;;13.43;;
21480;SDS011;10902;48.158;8.634;2023-01-01T07:08:46;20.92;;;13.43;;
21480;SDS011;10902;48.158;8.634;2023-01-01T07:11:12;20.17;;;13.13;;
21480;SDS011;10902;48.158;8.634;2023-01-01T07:13:38;25.13;;;13.88;;
21480;SDS011;10902;48.158;8.634;2023-01-01T07:16:03;23.02;;;13.27;;
21480;SDS011;10902;48.158;8.634;2023-01-01T07:18:30;19.08;;;13.10;;
21480;SDS011;10902;48.158;8.634;2023-01-01T07:20:56;19.30;;;12.70;;
21480;SDS011;10902;48.158;8.634;2023-01-01T07:23:24;20.73;;;13.18;;
21480;SDS011;10902;48.158;8.634;2023-01-01T07:25:51;20.55;;;13.55;;
21480;SDS011;10902;48.158;8.634;2023-01-01T07:28:18;21.02;;;13.90;;
21480;SDS011;10902;48.158;8.634;2023-01-01T07:30:44;21.67;;;12.75;;
21480;SDS011;10902;48.158;8.634;2023-01-01T07:33:11;17.90;;;10.90;;
21480;SDS011;10902;48.158;8.634;2023-01-01T07:35:38;15.32;;;10.57;;
21480;SDS011;10902;48.158;8.634;2023-01-01T07:38:04;15.77;;;10.77;;
21480;SDS011;10902;48.158;8.634;2023-01-01T07:40:30;15.70;;;9.75;;
21480;SDS011;10902;48.158;8.634;2023-01-01T07:42:56;15.13;;;10.05;;
21480;SDS011;10902;48.158;8.634;2023-01-01T07:45:21;17.25;;;10.63;;
21480;SDS011;10902;48.158;8.634;2023-01-01T07:47:49;15.88;;;10.40;;
21480;SDS011;10902;48.158;8.634;2023-01-01T07:50:16;16.23;;;10.38;;
21480;SDS011;10902;48.158;8.634;2023-01-01T07:52:42;17.15;;;10.18;;
21480;SDS011;10902;48.158;8.634;2023-01-01T07:55:15;16.58;;;9.20;;
21480;SDS011;10902;48.158;8.634;2023-01-01T07:57:42;15.40;;;9.30;;
21480;SDS011;10902;48.158;8.634;2023-01-01T08:00:08;15.00;;;9.55;;
21480;SDS011;10902;48.158;8.634;2023-01-01T08:02:37;14.35;;;9.43;;
21480;SDS011;10902;48.158;8.634;2023-01-01T08:05:03;16.00;;;9.65;;
21480;SDS011;10902;48.158;8.634;2023-01-01T08:07:28;14.85;;;9.98;;
21480;SDS011;10902;48.158;8.634;2023-01-01T08:09:54;14.45;;;9.35;;
21480;SDS011;10902;48.158;8.634;2023-01-01T08:12:20;13.50;;;8.85;;
21480;SDS011;10902;48.158;8.634;2023-01-01T08:14:45;16.40;;;8.65;;
21480;SDS011;10902;48.158;8.634;2023-01-01T08:17:11;13.48;;;8.23;;
21480;SDS011;10902;48.158;8.634;2023-01-01T08:19:36;14.93;;;9.25;;
21480;SDS011;10902;48.158;8.634;2023-01-01T08:22:02;12.98;;;8.95;;
21480;SDS011;10902;48.158;8.634;2023-01-01T08:24:27;14.50;;;8.52;;
21480;SDS011;10902;48.158;8.634;2023-01-01T08:26:53;16.38;;;8.68;;
21480;SDS011;10902;48.158;8.634;2023-01-01T08:29:19;13.00;;;7.88;;
21480;SDS011;10902;48.158;8.634;2023-01-01T08:31:44;14.80;;;8.82;;
21480;SDS011;10902;48.158;8.634;2023-01-01T08:34:10;15.18;;;8.68;;
21480;SDS011;10902;48.158;8.634;2023-01-01T08:36:36;15.02;;;8.85;;
21480;SDS011;10902;48.158;8.634;2023-01-01T08:39:04;12.55;;;8.23;;
21480;SDS011;10902;48.158;8.634;2023-01-01T08:41:30;13.63;;;8.60;;
21480;SDS011;10902;48.158;8.634;2023-01-01T08:43:55;15.02;;;8.63;;
21480;SDS011;10902;48.158;8.634;2023-01-01T08:46:21;13.05;;;8.13;;
21480;SDS011;10902;48.158;8.634;2023-01-01T08:48:47;10.98;;;7.40;;
21480;SDS011;10902;48.158;8.634;2023-01-01T08:51:12;12.05;;;7.78;;
21480;SDS011;10902;48.158;8.634;2023-01-01T08:53:38;12.40;;;7.75;;
21480;SDS011;10902;48.158;8.634;2023-01-01T08:56:04;9.88;;;6.45;;
21480;SDS011;10902;48.158;8.634;2023-01-01T08:58:32;10.80;;;6.88;;
21480;SDS011;10902;48.158;8.634;2023-01-01T09:00:59;11.80;;;6.68;;
21480;SDS011;10902;48.158;8.634;2023-01-01T09:03:25;11.05;;;6.57;;
21480;SDS011;10902;48.158;8.634;2023-01-01T09:05:50;10.00;;;6.05;;
21480;SDS011;10902;48.158;8.634;2023-01-01T09:08:16;9.38;;;5.40;;
21480;SDS011;10902;48.158;8.634;2023-01-01T09:10:42;10.65;;;5.63;;
21480;SDS011;10902;48.158;8.634;2023-01-01T09:13:18;10.75;;;5.85;;
21480;SDS011;10902;48.158;8.634;2023-01-01T09:15:45;8.95;;;5.60;;
21480;SDS011;10902;48.158;8.634;2023-01-01T09:18:11;11.32;;;6.18;;
21480;SDS011;10902;48.158;8.634;2023-01-01T09:20:37;9.10;;;5.40;;
21480;SDS011;10902;48.158;8.634;2023-01-01T09:23:03;9.30;;;5.43;;
21480;SDS011;10902;48.158;8.634;2023-01-01T09:25:30;10.27;;;5.60;;
21480;SDS011;10902;48.158;8.634;2023-01-01T09:28:00;10.00;;;5.28;;
21480;SDS011;10902;48.158;8.634;2023-01-01T09:30:28;9.95;;;5.85;;
21480;SDS011;10902;48.158;8.634;2023-01-01T09:32:54;8.23;;;5.72;;
21480;SDS011;10902;48.158;8.634;2023-01-01T09:35:20;9.05;;;5.43;;
21480;SDS011;10902;48.158;8.634;2023-01-01T09:37:45;10.55;;;5.80;;
21480;SDS011;10902;48.158;8.634;2023-01-01T09:40:55;10.88;;;5.85;;
21480;SDS011;10902;48.158;8.634;2023-01-01T09:43:32;8.93;;;4.93;;
21480;SDS011;10902;48.158;8.634;2023-01-01T09:46:27;9.77;;;5.72;;
21480;SDS011;10902;48.158;8.634;2023-01-01T09:48:54;8.68;;;5.93;;
21480;SDS011;10902;48.158;8.634;2023-01-01T09:51:23;12.38;;;6.80;;
21480;SDS011;10902;48.158;8.634;2023-01-01T09:56:52;10.75;;;6.07;;
21480;SDS011;10902;48.158;8.634;2023-01-01T09:59:20;14.38;;;9.05;;
21480;SDS011;10902;48.158;8.634;2023-01-01T10:01:52;9.68;;;5.75;;
21480;SDS011;10902;48.158;8.634;2023-01-01T10:07:17;8.90;;;5.88;;
21480;SDS011;10902;48.158;8.634;2023-01-01T10:15:30;7.05;;;3.72;;
21480;SDS011;10902;48.158;8.634;2023-01-01T10:17:58;7.43;;;4.57;;
21480;SDS011;10902;48.158;8.634;2023-01-01T10:20:30;9.93;;;4.90;;
21480;SDS011;10902;48.158;8.634;2023-01-01T10:23:02;9.40;;;4.22;;
21480;SDS011;10902;48.158;8.634;2023-01-01T10:25:56;8.43;;;4.07;;
21480;SDS011;10902;48.158;8.634;2023-01-01T10:28:32;9.20;;;4.53;;
21480;SDS011;10902;48.158;8.634;2023-01-01T10:31:13;10.40;;;5.03;;
21480;SDS011;10902;48.158;8.634;2023-01-01T10:33:42;8.63;;;5.50;;
21480;SDS011;10902;48.158;8.634;2023-01-01T10:36:09;10.50;;;5.05;;
21480;SDS011;10902;48.158;8.634;2023-01-01T10:38:38;8.15;;;4.95;;
21480;SDS011;10902;48.158;8.634;2023-01-01T10:41:05;13.00;;;5.60;;
21480;SDS011;10902;48.158;8.634;2023-01-01T10:43:33;7.80;;;4.82;;
21480;SDS011;10902;48.158;8.634;2023-01-01T10:45:59;9.07;;;4.18;;
21480;SDS011;10902;48.158;8.634;2023-01-01T10:48:27;6.65;;;3.40;;
21480;SDS011;10902;48.158;8.634;2023-01-01T10:58:35;6.15;;;3.22;;
21480;SDS011;10902;48.158;8.634;2023-01-01T11:01:02;7.68;;;3.30;;
21480;SDS011;10902;48.158;8.634;2023-01-01T11:03:29;7.57;;;3.42;;
21480;SDS011;10902;48.158;8.634;2023-01-01T11:08:49;7.63;;;3.30;;
21480;SDS011;10902;48.158;8.634;2023-01-01T11:11:27;6.22;;;3.38;;
21480;SDS011;10902;48.158;8.634;2023-01-01T11:13:55;7.20;;;3.75;;
21480;SDS011;10902;48.158;8.634;2023-01-01T11:16:28;6.90;;;3.20;;
21480;SDS011;10902;48.158;8.634;2023-01-01T11:19:01;5.65;;;2.95;;
21480;SDS011;10902;48.158;8.634;2023-01-01T11:21:28;6.70;;;3.22;;
21480;SDS011;10902;48.158;8.634;2023-01-01T11:26:45;7.47;;;2.85;;
21480;SDS011;10902;48.158;8.634;2023-01-01T11:31:39;6.30;;;2.60;;
21480;SDS011;10902;48.158;8.634;2023-01-01T11:36:44;6.72;;;2.60;;
21480;SDS011;10902;48.158;8.634;2023-01-01T11:41:50;6.80;;;2.83;;
21480;SDS011;10902;48.158;8.634;2023-01-01T11:44:53;8.30;;;3.38;;
21480;SDS011;10902;48.158;8.634;2023-01-01T11:47:24;6.18;;;2.58;;
21480;SDS011;10902;48.158;8.634;2023-01-01T11:52:45;6.20;;;2.47;;
21480;SDS011;10902;48.158;8.634;2023-01-01T11:58:09;6.97;;;2.92;;
21480;SDS011;10902;48.158;8.634;2023-01-01T12:00:54;6.57;;;2.70;;
21480;SDS011;10902;48.158;8.634;2023-01-01T12:03:29;6.85;;;2.53;;
21480;SDS011;10902;48.158;8.634;2023-01-01T12:14:09;6.60;;;2.60;;
21480;SDS011;10902;48.158;8.634;2023-01-01T12:16:51;6.00;;;2.17;;
21480;SDS011;10902;48.158;8.634;2023-01-01T12:19:51;7.20;;;2.40;;
21480;SDS011;10902;48.158;8.634;2023-01-01T12:22:16;6.53;;;2.40;;
21480;SDS011;10902;48.158;8.634;2023-01-01T12:24:43;7.38;;;2.47;;
21480;SDS011;10902;48.158;8.634;2023-01-01T12:30:30;5.38;;;2.20;;
21480;SDS011;10902;48.158;8.634;2023-01-01T12:33:31;5.88;;;2.58;;
21480;SDS011;10902;48.158;8.634;2023-01-01T12:41:48;6.40;;;2.38;;
21480;SDS011;10902;48.158;8.634;2023-01-01T12:44:36;5.72;;;2.05;;
21480;SDS011;10902;48.158;8.634;2023-01-01T12:47:41;5.15;;;2.22;;
21480;SDS011;10902;48.158;8.634;2023-01-01T12:50:20;5.38;;;2.38;;
21480;SDS011;10902;48.158;8.634;2023-01-01T12:52:56;5.63;;;2.20;;
21480;SDS011;10902;48.158;8.634;2023-01-01T12:55:35;6.15;;;2.55;;
21480;SDS011;10902;48.158;8.634;2023-01-01T12:58:23;7.22;;;2.13;;
21480;SDS011;10902;48.158;8.634;2023-01-01T13:01:17;6.05;;;2.47;;
21480;SDS011;10902;48.158;8.634;2023-01-01T13:03:53;6.85;;;2.53;;
21480;SDS011;10902;48.158;8.634;2023-01-01T13:06:24;5.57;;;2.65;;
21480;SDS011;10902;48.158;8.634;2023-01-01T13:09:05;5.93;;;2.53;;
21480;SDS011;10902;48.158;8.634;2023-01-01T13:11:36;6.80;;;2.90;;
21480;SDS011;10902;48.158;8.634;2023-01-01T13:14:04;7.88;;;3.20;;
21480;SDS011;10902;48.158;8.634;2023-01-01T13:16:31;7.55;;;3.15;;
21480;SDS011;10902;48.158;8.634;2023-01-01T13:18:58;5.80;;;2.45;;
21480;SDS011;10902;48.158;8.634;2023-01-01T13:21:24;7.35;;;2.10;;
21480;SDS011;10902;48.158;8.634;2023-01-01T13:23:52;6.90;;;2.45;;
21480;SDS011;10902;48.158;8.634;2023-01-01T13:42:36;5.82;;;2.47;;
21480;SDS011;10902;48.158;8.634;2023-01-01T13:45:34;5.45;;;2.08;;
21480;SDS011;10902;48.158;8.634;2023-01-01T14:04:35;7.20;;;2.25;;
21480;SDS011;10902;48.158;8.634;2023-01-01T14:07:27;5.22;;;2.00;;
21480;SDS011;10902;48.158;8.634;2023-01-01T14:12:41;4.43;;;2.00;;
21480;SDS011;10902;48.158;8.634;2023-01-01T14:18:03;6.63;;;2.20;;
21480;SDS011;10902;48.158;8.634;2023-01-01T14:20:41;6.80;;;2.25;;
21480;SDS011;10902;48.158;8.634;2023-01-01T14:23:56;6.63;;;2.65;;
21480;SDS011;10902;48.158;8.634;2023-01-01T14:25:58;5.95;;;1.92;;
21480;SDS011;10902;48.158;8.634;2023-01-01T14:28:26;7.10;;;2.13;;
21480;SDS011;10902;48.158;8.634;2023-01-01T14:30:54;4.95;;;1.90;;
21480;SDS011;10902;48.158;8.634;2023-01-01T14:33:26;6.93;;;1.98;;
21480;SDS011;10902;48.158;8.634;2023-01-01T14:35:54;5.57;;;1.90;;
21480;SDS011;10902;48.158;8.634;2023-01-01T14:38:22;5.70;;;1.98;;
21480;SDS011;10902;48.158;8.634;2023-01-01T14:43:45;6.90;;;2.53;;
21480;SDS011;10902;48.158;8.634;2023-01-01T14:46:15;8.05;;;2.45;;
21480;SDS011;10902;48.158;8.634;2023-01-01T14:48:43;7.40;;;2.40;;
21480;SDS011;10902;48.158;8.634;2023-01-01T14:51:12;6.85;;;2.45;;
21480;SDS011;10902;48.158;8.634;2023-01-01T14:53:40;5.25;;;1.98;;
21480;SDS011;10902;48.158;8.634;2023-01-01T14:56:08;7.38;;;2.35;;
21480;SDS011;10902;48.158;8.634;2023-01-01T14:58:33;7.95;;;2.72;;
21480;SDS011;10902;48.158;8.634;2023-01-01T15:01:16;7.70;;;2.60;;
21480;SDS011;10902;48.158;8.634;2023-01-01T15:04:03;5.35;;;2.13;;
21480;SDS011;10902;48.158;8.634;2023-01-01T15:06:51;7.47;;;2.83;;
21480;SDS011;10902;48.158;8.634;2023-01-01T15:09:18;6.30;;;2.22;;
21480;SDS011;10902;48.158;8.634;2023-01-01T15:11:44;8.18;;;2.67;;
21480;SDS011;10902;48.158;8.634;2023-01-01T15:14:26;8.70;;;2.35;;
21480;SDS011;10902;48.158;8.634;2023-01-01T15:17:07;6.78;;;2.65;;
21480;SDS011;10902;48.158;8.634;2023-01-01T15:19:35;6.78;;;2.40;;
21480;SDS011;10902;48.158;8.634;2023-01-01T15:22:11;5.40;;;2.50;;
21480;SDS011;10902;48.158;8.634;2023-01-01T15:24:50;6.70;;;2.85;;
21480;SDS011;10902;48.158;8.634;2023-01-01T15:27:26;9.07;;;3.55;;
21480;SDS011;10902;48.158;8.634;2023-01-01T15:29:59;7.90;;;2.90;;
21480;SDS011;10902;48.158;8.634;2023-01-01T15:32:30;5.47;;;2.70;;
21480;SDS011;10902;48.158;8.634;2023-01-01T15:34:58;7.63;;;3.33;;
21480;SDS011;10902;48.158;8.634;2023-01-01T15:37:46;9.55;;;3.08;;
21480;SDS011;10902;48.158;8.634;2023-01-01T15:42:44;6.90;;;2.90;;
21480;SDS011;10902;48.158;8.634;2023-01-01T15:45:26;9.10;;;3.75;;
21480;SDS011;10902;48.158;8.634;2023-01-01T15:50:31;7.93;;;2.97;;
21480;SDS011;10902;48.158;8.634;2023-01-01T15:52:59;8.18;;;3.00;;
21480;SDS011;10902;48.158;8.634;2023-01-01T15:55:28;8.13;;;3.60;;
21480;SDS011;10902;48.158;8.634;2023-01-01T15:57:57;7.68;;;3.35;;
21480;SDS011;10902;48.158;8.634;2023-01-01T16:00:25;7.15;;;3.35;;
21480;SDS011;10902;48.158;8.634;2023-01-01T16:02:54;8.85;;;3.33;;
21480;SDS011;10902;48.158;8.634;2023-01-01T16:05:26;8.48;;;3.75;;
21480;SDS011;10902;48.158;8.634;2023-01-01T16:07:58;7.95;;;3.00;;
21480;SDS011;10902;48.158;8.634;2023-01-01T16:10:26;6.63;;;2.90;;
21480;SDS011;10902;48.158;8.634;2023-01-01T16:12:51;7.03;;;2.95;;
21480;SDS011;10902;48.158;8.634;2023-01-01T16:15:17;8.60;;;3.42;;
21480;SDS011;10902;48.158;8.634;2023-01-01T16:17:43;7.82;;;2.95;;
21480;SDS011;10902;48.158;8.634;2023-01-01T16:20:12;8.57;;;3.03;;
21480;SDS011;10902;48.158;8.634;2023-01-01T16:22:39;7.32;;;3.17;;
21480;SDS011;10902;48.158;8.634;2023-01-01T16:25:16;7.47;;;3.35;;
21480;SDS011;10902;48.158;8.634;2023-01-01T16:27:43;6.57;;;2.80;;
21480;SDS011;10902;48.158;8.634;2023-01-01T16:30:10;7.03;;;2.90;;
21480;SDS011;10902;48.158;8.634;2023-01-01T16:32:36;8.05;;;2.78;;
21480;SDS011;10902;48.158;8.634;2023-01-01T16:35:02;7.13;;;3.53;;
21480;SDS011;10902;48.158;8.634;2023-01-01T16:37:30;7.53;;;3.38;;
21480;SDS011;10902;48.158;8.634;2023-01-01T16:39:56;9.55;;;3.58;;
21480;SDS011;10902;48.158;8.634;2023-01-01T16:42:22;8.27;;;3.33;;
21480;SDS011;10902;48.158;8.634;2023-01-01T16:44:48;7.15;;;2.85;;
21480;SDS011;10902;48.158;8.634;2023-01-01T16:47:14;7.07;;;3.00;;
21480;SDS011;10902;48.158;8.634;2023-01-01T16:49:39;5.85;;;2.95;;
21480;SDS011;10902;48.158;8.634;2023-01-01T16:52:05;8.20;;;3.25;;
21480;SDS011;10902;48.158;8.634;2023-01-01T16:54:31;6.20;;;3.20;;
21480;SDS011;10902;48.158;8.634;2023-01-01T16:56:56;8.55;;;3.47;;
21480;SDS011;10902;48.158;8.634;2023-01-01T16:59:22;8.63;;;3.40;;
21480;SDS011;10902;48.158;8.634;2023-01-01T17:01:48;7.15;;;3.65;;